MMMT 090040Z 36010KT 7SM SKC 24/23 A2990= 090040

MMMT 082340Z 36010KT 7SM SKC 25/23 A2990 RMK SLP225 54000 900= 082341

MMMT 082240Z 36010KT 7SM SKC 26/23 A2986= 082240

MMMT 082140Z 36010KT 7SM SCT020 26/24 A2986 RMK 8/100= 082140

MMMT 082040Z 36010KT 7SM BKN020 26/24 A2990 RMK SLP225 57004 962 8/500= 082041

MMMT 081943Z 01015KT 6SM SCT035 26/24 A2988 RMK 8/100 HZY= 081943

MMMT 081849Z 01013KT 6SM SCT035 26/24 A2991 RMK 8/100 HZY= 081851

MMMT 081745Z 01012KT 6SM SCT035 26/24 A2994 RMK SLP214 57010 957 8/100 HZY= 081746

MMMT 081641Z 36010KT 6SM SCT035 26/24 A2997 RMK 8/100 HZY= 081641

MMMT 081550Z 01010KT 6SM SCT035 26/24 A2997 RMK 8/100 HZY= 081550

MMMT 081450Z 30005KT 5SM SKC 24/23 A2997 RMK SLP224 953 HZY= 081451

MMMT 081341Z 27002KT 5SM SKC 22/22 A2995 RMK HZY RTS= 081342

MMMT 081316Z RTD 00000KT 4SM SCT030 21/21 A2994 RMK 8/100 HZY= 081317

MMMT 080040Z 36010KT 7SM BKN020 24/23 A2990 RMK 8/500= 080040

MMMT 072340Z 36010KT 7SM BKN020 25/24 A2990 RMK SLP225 57004 962 8/500= 072341

MMMT 072240Z 36010KT 7SM BKN020 26/24 A2988 RMK 8/100= 072240

MMMT 072140Z 36010KT 7SM BKN020 26/24 A2988 RMK 8/100= 072140

MMMT 072040Z 36010KT 7SM BKN020 26/24 A2986 RMK SLP186 54000 900 8/100= 072041

MMMT 071940Z 01014KT 6SM BKN020 26/24 A2990 RMK 8/200 HZY= 071945

MMMT 071841Z 01013KT 6SM BKN020 26/24 A2992 RMK 8/200 HZY= 071842

MMMT 071747Z 03012KT 6SM BKN025 26/24 A2996 RMK SLP221 58007 910 8/200 HZY= 071751

MMMT 071641Z 01015KT 5SM BKN025 26/24 A2998 RMK 8/500 HZY= 071647

MMMT 071540Z 35005KT 4SM BKN020 BKN035 25/24 A2998 RMK 8/500 HZY= 071541

MMMT 071449Z 27006KT 4SM BKN020 BKN035 22/22 A2998 RMK SLP227 903 8/500 HZY= 071450

MMMT 071340Z 27007KT 1 1/2SM BR BKN015 OVC020 21/21 A2996 RMK 8/7//= 071342

MMMT 071254Z 27006KT 1 1/2SM BR BKN015 OVC020 21/21 A2994 RMK 8/7// RTS= 071256

MMMT 070144Z 05006KT 8SM SKC 24/23 A2991 RMK HZY= 070145

MMMT 070040Z 05008KT 8SM SKC 24/23 A2988 RMK HZY= 070041

MMMT 062341Z 03009KT 8SM SKC 24/23 A2986 RMK SLP186 55000 963 HZY= 062344

MMMT 062240Z 03010KT 10SM SKC 25/23 A2985 RMK HZY= 062240

MMMT 062142Z 04010KT 10SM SKC 26/23 A2985 RMK HZY= 062144

MMMT 062044Z 05009KT 8SM SKC 26/23 A2985 RMK SLP186 57023 991 HZY= 062047

MMMT 061942Z 03003KT 5SM SKC 26/23 A2987= 061942

MMMT 061850Z 03003KT 5SM SKC 27/22 A2989= 061851

MMMT 061742Z 03004KT 5SM SKC 26/23 A2993 RMK SLP210 57013 967= 061743

MMMT 061644Z 03004KT 5SM FEW040 26/23 A2996 RMK 8/100= 061645

MMMT 061540Z 20002KT 5SM FEW030 25/22 A2998 RMK 8/100 HZ= 061540

MMMT 061447Z 09002KT 5SM SKC 24/22 A2997 RMK SLP224 967 HZ= 061447

MMMT 061340Z 09002KT 5SM SKC 21/20 A2996 RMK HZ= 061342

MMMT 061255Z 09002KT 5SM SKC 22/21 A2994 RMK HZ RTS= 061257